sensor_id;sensor_type;location;lat;lon;timestamp;temperature;humidity
11824;DHT22;5969;50.780;7.726;2023-05-16T00:00:13;11.80;99.90
11824;DHT22;5969;50.780;7.726;2023-05-16T00:02:40;11.80;99.90
11824;DHT22;5969;50.780;7.726;2023-05-16T00:05:08;11.80;99.90
11824;DHT22;5969;50.780;7.726;2023-05-16T00:07:35;11.80;99.90
11824;DHT22;5969;50.780;7.726;2023-05-16T00:10:02;11.90;99.90
11824;DHT22;5969;50.780;7.726;2023-05-16T00:12:30;11.90;99.90
11824;DHT22;5969;50.780;7.726;2023-05-16T00:14:57;11.80;99.90
11824;DHT22;5969;50.780;7.726;2023-05-16T00:17:24;11.70;99.90
11824;DHT22;5969;50.780;7.726;2023-05-16T00:19:53;11.70;99.90
11824;DHT22;5969;50.780;7.726;2023-05-16T00:22:22;11.70;99.90
11824;DHT22;5969;50.780;7.726;2023-05-16T00:24:49;11.60;99.90
11824;DHT22;5969;50.780;7.726;2023-05-16T00:27:16;11.70;99.90
11824;DHT22;5969;50.780;7.726;2023-05-16T00:29:44;11.60;99.90
11824;DHT22;5969;50.780;7.726;2023-05-16T00:32:11;11.60;99.90
11824;DHT22;5969;50.780;7.726;2023-05-16T00:34:37;11.60;99.90
11824;DHT22;5969;50.780;7.726;2023-05-16T00:37:04;11.70;99.90
11824;DHT22;5969;50.780;7.726;2023-05-16T00:39:31;11.70;99.90
11824;DHT22;5969;50.780;7.726;2023-05-16T00:41:58;11.60;99.90
11824;DHT22;5969;50.780;7.726;2023-05-16T00:44:25;11.60;99.90
11824;DHT22;5969;50.780;7.726;2023-05-16T00:46:53;11.60;99.90
11824;DHT22;5969;50.780;7.726;2023-05-16T00:49:20;11.70;99.90
11824;DHT22;5969;50.780;7.726;2023-05-16T00:51:47;11.70;99.90
11824;DHT22;5969;50.780;7.726;2023-05-16T00:54:14;11.70;99.90
11824;DHT22;5969;50.780;7.726;2023-05-16T00:56:40;11.70;99.90
11824;DHT22;5969;50.780;7.726;2023-05-16T00:59:07;11.60;99.90
11824;DHT22;5969;50.780;7.726;2023-05-16T01:01:35;11.50;99.90
11824;DHT22;5969;50.780;7.726;2023-05-16T01:04:04;11.50;99.90
11824;DHT22;5969;50.780;7.726;2023-05-16T01:06:31;11.50;99.90
11824;DHT22;5969;50.780;7.726;2023-05-16T01:08:59;11.40;99.90
11824;DHT22;5969;50.780;7.726;2023-05-16T01:11:29;11.50;99.90
11824;DHT22;5969;50.780;7.726;2023-05-16T01:14:09;11.40;99.90
11824;DHT22;5969;50.780;7.726;2023-05-16T01:16:41;11.40;99.90
11824;DHT22;5969;50.780;7.726;2023-05-16T01:19:24;11.40;99.90
11824;DHT22;5969;50.780;7.726;2023-05-16T01:22:01;11.30;99.90
11824;DHT22;5969;50.780;7.726;2023-05-16T01:24:33;11.20;99.90
11824;DHT22;5969;50.780;7.726;2023-05-16T01:27:03;11.20;99.90
11824;DHT22;5969;50.780;7.726;2023-05-16T01:29:30;11.10;99.90
11824;DHT22;5969;50.780;7.726;2023-05-16T01:31:57;11.20;99.90
11824;DHT22;5969;50.780;7.726;2023-05-16T01:34:24;11.10;99.90
11824;DHT22;5969;50.780;7.726;2023-05-16T01:36:57;11.10;99.90
11824;DHT22;5969;50.780;7.726;2023-05-16T01:39:31;11.00;99.90
11824;DHT22;5969;50.780;7.726;2023-05-16T01:42:04;11.20;99.90
11824;DHT22;5969;50.780;7.726;2023-05-16T01:44:35;11.20;99.90
11824;DHT22;5969;50.780;7.726;2023-05-16T01:47:08;11.20;99.90
11824;DHT22;5969;50.780;7.726;2023-05-16T01:49:42;11.20;99.90
11824;DHT22;5969;50.780;7.726;2023-05-16T01:52:12;11.20;99.90
11824;DHT22;5969;50.780;7.726;2023-05-16T01:54:44;11.20;99.90
11824;DHT22;5969;50.780;7.726;2023-05-16T01:57:12;11.10;99.90
11824;DHT22;5969;50.780;7.726;2023-05-16T01:59:40;11.00;99.90
11824;DHT22;5969;50.780;7.726;2023-05-16T02:02:08;10.90;99.90
11824;DHT22;5969;50.780;7.726;2023-05-16T02:04:35;10.90;99.90
11824;DHT22;5969;50.780;7.726;2023-05-16T02:07:01;10.90;99.90
11824;DHT22;5969;50.780;7.726;2023-05-16T02:09:28;10.90;99.90
11824;DHT22;5969;50.780;7.726;2023-05-16T02:11:55;10.90;99.90
11824;DHT22;5969;50.780;7.726;2023-05-16T02:14:23;10.90;99.90
11824;DHT22;5969;50.780;7.726;2023-05-16T02:16:51;10.90;99.90
11824;DHT22;5969;50.780;7.726;2023-05-16T02:19:17;10.90;99.90
11824;DHT22;5969;50.780;7.726;2023-05-16T02:21:44;11.00;99.90
11824;DHT22;5969;50.780;7.726;2023-05-16T02:24:11;11.00;99.90
11824;DHT22;5969;50.780;7.726;2023-05-16T02:26:37;11.00;99.90
11824;DHT22;5969;50.780;7.726;2023-05-16T02:29:04;11.10;99.90
11824;DHT22;5969;50.780;7.726;2023-05-16T02:31:33;11.10;99.90
11824;DHT22;5969;50.780;7.726;2023-05-16T02:34:00;11.10;99.90
11824;DHT22;5969;50.780;7.726;2023-05-16T02:36:27;11.10;99.90
11824;DHT22;5969;50.780;7.726;2023-05-16T02:38:54;11.20;99.90
11824;DHT22;5969;50.780;7.726;2023-05-16T02:41:20;11.20;99.90
11824;DHT22;5969;50.780;7.726;2023-05-16T02:43:47;11.30;99.90
11824;DHT22;5969;50.780;7.726;2023-05-16T02:46:24;11.20;99.90
11824;DHT22;5969;50.780;7.726;2023-05-16T02:48:53;11.10;99.90
11824;DHT22;5969;50.780;7.726;2023-05-16T02:51:21;11.10;99.90
11824;DHT22;5969;50.780;7.726;2023-05-16T02:53:48;11.10;99.90
11824;DHT22;5969;50.780;7.726;2023-05-16T02:56:15;11.20;99.90
11824;DHT22;5969;50.780;7.726;2023-05-16T02:58:43;11.10;99.90
11824;DHT22;5969;50.780;7.726;2023-05-16T03:01:10;11.10;99.90
11824;DHT22;5969;50.780;7.726;2023-05-16T03:03:36;10.90;99.90
11824;DHT22;5969;50.780;7.726;2023-05-16T03:06:05;10.80;99.90
11824;DHT22;5969;50.780;7.726;2023-05-16T03:08:32;10.80;99.90
11824;DHT22;5969;50.780;7.726;2023-05-16T03:10:59;10.80;99.90
11824;DHT22;5969;50.780;7.726;2023-05-16T03:13:26;10.70;99.90
11824;DHT22;5969;50.780;7.726;2023-05-16T03:15:54;10.80;99.90
11824;DHT22;5969;50.780;7.726;2023-05-16T03:18:21;10.70;99.90
11824;DHT22;5969;50.780;7.726;2023-05-16T03:20:48;10.70;99.90
11824;DHT22;5969;50.780;7.726;2023-05-16T03:23:18;10.70;99.90
11824;DHT22;5969;50.780;7.726;2023-05-16T03:25:45;10.60;99.90
11824;DHT22;5969;50.780;7.726;2023-05-16T03:28:12;10.60;99.90
11824;DHT22;5969;50.780;7.726;2023-05-16T03:30:39;10.60;99.90
11824;DHT22;5969;50.780;7.726;2023-05-16T03:33:06;10.50;99.90
11824;DHT22;5969;50.780;7.726;2023-05-16T03:35:34;10.40;99.90
11824;DHT22;5969;50.780;7.726;2023-05-16T03:38:01;10.50;99.90
11824;DHT22;5969;50.780;7.726;2023-05-16T03:40:29;10.40;99.90
11824;DHT22;5969;50.780;7.726;2023-05-16T03:42:56;10.40;99.90
11824;DHT22;5969;50.780;7.726;2023-05-16T03:45:23;10.40;99.90
11824;DHT22;5969;50.780;7.726;2023-05-16T03:47:49;10.30;99.90
11824;DHT22;5969;50.780;7.726;2023-05-16T03:50:16;10.40;99.90
11824;DHT22;5969;50.780;7.726;2023-05-16T03:52:43;10.30;99.90
11824;DHT22;5969;50.780;7.726;2023-05-16T03:55:10;10.20;99.90
11824;DHT22;5969;50.780;7.726;2023-05-16T03:57:41;10.10;99.90
11824;DHT22;5969;50.780;7.726;2023-05-16T04:00:09;10.10;99.90
11824;DHT22;5969;50.780;7.726;2023-05-16T04:02:36;10.10;99.90
11824;DHT22;5969;50.780;7.726;2023-05-16T04:05:05;10.10;99.90
11824;DHT22;5969;50.780;7.726;2023-05-16T04:07:33;10.00;99.90
11824;DHT22;5969;50.780;7.726;2023-05-16T04:09:59;10.10;99.90
11824;DHT22;5969;50.780;7.726;2023-05-16T04:12:26;10.20;99.90
11824;DHT22;5969;50.780;7.726;2023-05-16T04:14:55;10.20;99.90
11824;DHT22;5969;50.780;7.726;2023-05-16T04:17:22;10.20;99.90
11824;DHT22;5969;50.780;7.726;2023-05-16T04:19:49;10.20;99.90
11824;DHT22;5969;50.780;7.726;2023-05-16T04:22:15;10.10;99.90
11824;DHT22;5969;50.780;7.726;2023-05-16T04:24:45;10.10;99.90
11824;DHT22;5969;50.780;7.726;2023-05-16T04:27:14;10.10;99.90
11824;DHT22;5969;50.780;7.726;2023-05-16T04:29:41;10.10;99.90
11824;DHT22;5969;50.780;7.726;2023-05-16T04:32:09;10.20;99.90
11824;DHT22;5969;50.780;7.726;2023-05-16T04:34:36;10.00;99.90
11824;DHT22;5969;50.780;7.726;2023-05-16T04:37:04;10.00;99.90
11824;DHT22;5969;50.780;7.726;2023-05-16T04:39:32;10.00;99.90
11824;DHT22;5969;50.780;7.726;2023-05-16T04:41:59;9.90;99.90
11824;DHT22;5969;50.780;7.726;2023-05-16T04:44:26;9.80;99.90
11824;DHT22;5969;50.780;7.726;2023-05-16T04:46:53;9.60;99.90
11824;DHT22;5969;50.780;7.726;2023-05-16T04:49:21;9.70;99.90
11824;DHT22;5969;50.780;7.726;2023-05-16T04:51:48;9.40;99.90
11824;DHT22;5969;50.780;7.726;2023-05-16T04:54:15;9.40;99.90
11824;DHT22;5969;50.780;7.726;2023-05-16T04:56:42;9.30;99.90
11824;DHT22;5969;50.780;7.726;2023-05-16T04:59:09;9.30;99.90
11824;DHT22;5969;50.780;7.726;2023-05-16T05:01:35;9.40;99.90
11824;DHT22;5969;50.780;7.726;2023-05-16T05:04:02;9.40;99.90
11824;DHT22;5969;50.780;7.726;2023-05-16T05:06:38;9.40;99.90
11824;DHT22;5969;50.780;7.726;2023-05-16T05:09:05;9.60;99.90
11824;DHT22;5969;50.780;7.726;2023-05-16T05:11:32;9.60;99.90
11824;DHT22;5969;50.780;7.726;2023-05-16T05:13:59;9.70;99.90
11824;DHT22;5969;50.780;7.726;2023-05-16T05:16:26;9.90;99.90
11824;DHT22;5969;50.780;7.726;2023-05-16T05:18:54;9.80;99.90
11824;DHT22;5969;50.780;7.726;2023-05-16T05:21:21;9.80;99.90
11824;DHT22;5969;50.780;7.726;2023-05-16T05:23:51;9.80;99.90
11824;DHT22;5969;50.780;7.726;2023-05-16T05:26:18;9.90;99.90
11824;DHT22;5969;50.780;7.726;2023-05-16T05:28:47;9.80;99.90
11824;DHT22;5969;50.780;7.726;2023-05-16T05:31:14;10.10;99.90
11824;DHT22;5969;50.780;7.726;2023-05-16T05:33:41;10.10;99.90
11824;DHT22;5969;50.780;7.726;2023-05-16T05:36:08;10.10;99.90
11824;DHT22;5969;50.780;7.726;2023-05-16T05:38:35;10.00;99.90
11824;DHT22;5969;50.780;7.726;2023-05-16T05:41:03;10.10;99.90
11824;DHT22;5969;50.780;7.726;2023-05-16T05:43:31;10.20;99.90
11824;DHT22;5969;50.780;7.726;2023-05-16T05:45:58;10.10;99.90
11824;DHT22;5969;50.780;7.726;2023-05-16T05:48:25;10.20;99.90
11824;DHT22;5969;50.780;7.726;2023-05-16T05:50:53;10.20;99.90
11824;DHT22;5969;50.780;7.726;2023-05-16T05:53:19;10.20;99.90
11824;DHT22;5969;50.780;7.726;2023-05-16T05:55:46;10.30;99.90
11824;DHT22;5969;50.780;7.726;2023-05-16T05:58:14;10.30;99.90
11824;DHT22;5969;50.780;7.726;2023-05-16T06:00:43;10.40;99.90
11824;DHT22;5969;50.780;7.726;2023-05-16T06:03:10;10.50;99.90
11824;DHT22;5969;50.780;7.726;2023-05-16T06:05:37;10.60;99.90
11824;DHT22;5969;50.780;7.726;2023-05-16T06:08:04;10.60;99.90
11824;DHT22;5969;50.780;7.726;2023-05-16T06:10:31;10.40;99.90
11824;DHT22;5969;50.780;7.726;2023-05-16T06:12:57;10.40;99.90
11824;DHT22;5969;50.780;7.726;2023-05-16T06:15:25;10.30;99.90
11824;DHT22;5969;50.780;7.726;2023-05-16T06:17:52;10.10;99.90
11824;DHT22;5969;50.780;7.726;2023-05-16T06:20:19;10.10;99.90
11824;DHT22;5969;50.780;7.726;2023-05-16T06:22:46;10.00;99.90
11824;DHT22;5969;50.780;7.726;2023-05-16T06:25:13;9.80;99.90
11824;DHT22;5969;50.780;7.726;2023-05-16T06:27:40;9.70;99.90
11824;DHT22;5969;50.780;7.726;2023-05-16T06:30:07;9.70;99.90
11824;DHT22;5969;50.780;7.726;2023-05-16T06:32:36;9.70;99.90
11824;DHT22;5969;50.780;7.726;2023-05-16T06:35:04;9.60;99.90
11824;DHT22;5969;50.780;7.726;2023-05-16T06:37:31;9.70;99.90
11824;DHT22;5969;50.780;7.726;2023-05-16T06:39:58;9.70;99.90
11824;DHT22;5969;50.780;7.726;2023-05-16T06:42:25;9.60;99.90
11824;DHT22;5969;50.780;7.726;2023-05-16T06:44:55;9.80;99.90
11824;DHT22;5969;50.780;7.726;2023-05-16T06:47:21;9.80;99.90
11824;DHT22;5969;50.780;7.726;2023-05-16T06:49:50;10.00;99.90
11824;DHT22;5969;50.780;7.726;2023-05-16T06:52:16;10.10;99.90
11824;DHT22;5969;50.780;7.726;2023-05-16T06:54:43;10.00;99.90
11824;DHT22;5969;50.780;7.726;2023-05-16T06:57:10;10.00;99.90
11824;DHT22;5969;50.780;7.726;2023-05-16T06:59:37;9.90;99.90
11824;DHT22;5969;50.780;7.726;2023-05-16T07:02:04;9.80;99.90
11824;DHT22;5969;50.780;7.726;2023-05-16T07:04:32;9.80;99.90
11824;DHT22;5969;50.780;7.726;2023-05-16T07:07:02;9.70;99.90
11824;DHT22;5969;50.780;7.726;2023-05-16T07:09:29;9.70;99.90
11824;DHT22;5969;50.780;7.726;2023-05-16T07:11:56;9.80;99.90
11824;DHT22;5969;50.780;7.726;2023-05-16T07:14:23;9.80;99.90
11824;DHT22;5969;50.780;7.726;2023-05-16T07:16:49;9.90;99.90
11824;DHT22;5969;50.780;7.726;2023-05-16T07:19:16;10.20;99.90
11824;DHT22;5969;50.780;7.726;2023-05-16T07:21:43;10.60;99.90
11824;DHT22;5969;50.780;7.726;2023-05-16T07:24:11;10.70;99.90
11824;DHT22;5969;50.780;7.726;2023-05-16T07:26:38;10.80;99.90
11824;DHT22;5969;50.780;7.726;2023-05-16T07:29:05;10.80;99.90
11824;DHT22;5969;50.780;7.726;2023-05-16T07:31:31;10.90;99.90
11824;DHT22;5969;50.780;7.726;2023-05-16T07:33:58;10.90;99.90
11824;DHT22;5969;50.780;7.726;2023-05-16T07:36:25;10.90;99.90
11824;DHT22;5969;50.780;7.726;2023-05-16T07:38:52;10.90;99.90
11824;DHT22;5969;50.780;7.726;2023-05-16T07:41:20;10.90;99.90
11824;DHT22;5969;50.780;7.726;2023-05-16T07:43:47;10.80;99.90
11824;DHT22;5969;50.780;7.726;2023-05-16T07:46:13;10.70;99.90
11824;DHT22;5969;50.780;7.726;2023-05-16T07:48:40;10.40;99.90
11824;DHT22;5969;50.780;7.726;2023-05-16T07:51:07;10.30;99.90
11824;DHT22;5969;50.780;7.726;2023-05-16T07:53:34;10.20;99.90
11824;DHT22;5969;50.780;7.726;2023-05-16T07:56:02;10.30;99.90
11824;DHT22;5969;50.780;7.726;2023-05-16T07:58:30;10.60;99.90
11824;DHT22;5969;50.780;7.726;2023-05-16T08:00:57;11.10;99.90
11824;DHT22;5969;50.780;7.726;2023-05-16T08:03:24;11.40;99.90
11824;DHT22;5969;50.780;7.726;2023-05-16T08:05:51;11.80;99.90
11824;DHT22;5969;50.780;7.726;2023-05-16T08:08:18;12.10;99.90
11824;DHT22;5969;50.780;7.726;2023-05-16T08:10:44;12.30;99.90
11824;DHT22;5969;50.780;7.726;2023-05-16T08:13:11;12.40;99.90
11824;DHT22;5969;50.780;7.726;2023-05-16T08:15:40;12.30;99.90
11824;DHT22;5969;50.780;7.726;2023-05-16T08:18:12;12.30;99.90
11824;DHT22;5969;50.780;7.726;2023-05-16T08:20:40;11.90;99.90
11824;DHT22;5969;50.780;7.726;2023-05-16T08:23:07;11.50;99.90
11824;DHT22;5969;50.780;7.726;2023-05-16T08:25:34;11.40;99.90
11824;DHT22;5969;50.780;7.726;2023-05-16T08:28:01;11.40;99.90
11824;DHT22;5969;50.780;7.726;2023-05-16T08:30:28;11.30;99.90
11824;DHT22;5969;50.780;7.726;2023-05-16T08:32:56;11.60;99.90
11824;DHT22;5969;50.780;7.726;2023-05-16T08:35:23;11.50;99.90
11824;DHT22;5969;50.780;7.726;2023-05-16T08:37:50;11.70;99.90
11824;DHT22;5969;50.780;7.726;2023-05-16T08:40:17;12.00;99.90
11824;DHT22;5969;50.780;7.726;2023-05-16T08:42:44;12.10;99.90
11824;DHT22;5969;50.780;7.726;2023-05-16T08:45:11;12.30;99.90
11824;DHT22;5969;50.780;7.726;2023-05-16T08:47:39;12.30;99.90
11824;DHT22;5969;50.780;7.726;2023-05-16T08:50:09;12.40;99.90
11824;DHT22;5969;50.780;7.726;2023-05-16T08:52:37;12.10;99.90
11824;DHT22;5969;50.780;7.726;2023-05-16T08:55:05;12.10;99.90
11824;DHT22;5969;50.780;7.726;2023-05-16T08:57:34;12.40;99.90
11824;DHT22;5969;50.780;7.726;2023-05-16T09:00:02;12.60;99.90
11824;DHT22;5969;50.780;7.726;2023-05-16T09:02:36;12.70;99.90
11824;DHT22;5969;50.780;7.726;2023-05-16T09:05:04;12.80;99.90
11824;DHT22;5969;50.780;7.726;2023-05-16T09:07:32;12.80;99.90
11824;DHT22;5969;50.780;7.726;2023-05-16T09:09:59;12.90;99.90
11824;DHT22;5969;50.780;7.726;2023-05-16T09:12:26;13.00;99.90
11824;DHT22;5969;50.780;7.726;2023-05-16T09:14:53;13.10;99.90
11824;DHT22;5969;50.780;7.726;2023-05-16T09:17:20;13.30;99.90
11824;DHT22;5969;50.780;7.726;2023-05-16T09:19:47;13.20;99.90
11824;DHT22;5969;50.780;7.726;2023-05-16T09:22:17;13.10;99.90
11824;DHT22;5969;50.780;7.726;2023-05-16T09:24:46;12.80;99.60
11824;DHT22;5969;50.780;7.726;2023-05-16T09:27:14;12.60;99.90
11824;DHT22;5969;50.780;7.726;2023-05-16T09:29:41;12.20;99.50
11824;DHT22;5969;50.780;7.726;2023-05-16T09:32:10;12.30;99.90
11824;DHT22;5969;50.780;7.726;2023-05-16T09:34:38;12.50;99.90
11824;DHT22;5969;50.780;7.726;2023-05-16T09:37:09;12.70;99.90
11824;DHT22;5969;50.780;7.726;2023-05-16T09:39:38;12.90;99.90
11824;DHT22;5969;50.780;7.726;2023-05-16T09:42:10;13.10;98.60
11824;DHT22;5969;50.780;7.726;2023-05-16T09:44:37;13.10;98.10
11824;DHT22;5969;50.780;7.726;2023-05-16T09:47:05;13.10;98.20
11824;DHT22;5969;50.780;7.726;2023-05-16T09:49:32;13.50;98.60
11824;DHT22;5969;50.780;7.726;2023-05-16T09:52:00;13.60;99.50
11824;DHT22;5969;50.780;7.726;2023-05-16T09:54:30;13.40;99.60
11824;DHT22;5969;50.780;7.726;2023-05-16T09:56:58;13.10;98.20
11824;DHT22;5969;50.780;7.726;2023-05-16T09:59:27;12.90;98.30
11824;DHT22;5969;50.780;7.726;2023-05-16T10:01:56;12.50;98.40
11824;DHT22;5969;50.780;7.726;2023-05-16T10:04:23;12.40;99.60
11824;DHT22;5969;50.780;7.726;2023-05-16T10:06:50;12.60;99.90
11824;DHT22;5969;50.780;7.726;2023-05-16T10:09:20;12.90;99.40
11824;DHT22;5969;50.780;7.726;2023-05-16T10:11:48;13.20;98.70
11824;DHT22;5969;50.780;7.726;2023-05-16T10:14:17;13.40;97.70
11824;DHT22;5969;50.780;7.726;2023-05-16T10:16:47;13.40;97.80
11824;DHT22;5969;50.780;7.726;2023-05-16T10:19:15;13.40;97.80
11824;DHT22;5969;50.780;7.726;2023-05-16T10:21:45;13.00;97.30
11824;DHT22;5969;50.780;7.726;2023-05-16T10:24:18;13.30;99.00
11824;DHT22;5969;50.780;7.726;2023-05-16T10:26:48;13.80;97.80
11824;DHT22;5969;50.780;7.726;2023-05-16T10:29:16;14.10;98.10
11824;DHT22;5969;50.780;7.726;2023-05-16T10:31:43;14.50;97.50
11824;DHT22;5969;50.780;7.726;2023-05-16T10:34:12;14.80;96.60
11824;DHT22;5969;50.780;7.726;2023-05-16T10:36:39;14.90;96.40
11824;DHT22;5969;50.780;7.726;2023-05-16T10:39:06;15.10;95.70
11824;DHT22;5969;50.780;7.726;2023-05-16T10:41:34;15.20;94.60
11824;DHT22;5969;50.780;7.726;2023-05-16T10:44:01;15.20;95.00
11824;DHT22;5969;50.780;7.726;2023-05-16T10:46:30;15.40;95.60
11824;DHT22;5969;50.780;7.726;2023-05-16T10:48:57;14.90;94.10
11824;DHT22;5969;50.780;7.726;2023-05-16T10:51:35;14.90;94.50
11824;DHT22;5969;50.780;7.726;2023-05-16T10:54:08;14.80;94.60
11824;DHT22;5969;50.780;7.726;2023-05-16T10:56:36;15.00;95.30
11824;DHT22;5969;50.780;7.726;2023-05-16T10:59:03;15.20;93.80
11824;DHT22;5969;50.780;7.726;2023-05-16T11:01:32;15.40;94.20
11824;DHT22;5969;50.780;7.726;2023-05-16T11:04:00;15.60;94.30
11824;DHT22;5969;50.780;7.726;2023-05-16T11:06:29;15.60;94.50
11824;DHT22;5969;50.780;7.726;2023-05-16T11:09:03;15.30;93.70
11824;DHT22;5969;50.780;7.726;2023-05-16T11:11:41;14.90;94.10
11824;DHT22;5969;50.780;7.726;2023-05-16T11:14:08;14.90;95.10
11824;DHT22;5969;50.780;7.726;2023-05-16T11:16:47;15.10;93.80
11824;DHT22;5969;50.780;7.726;2023-05-16T11:19:28;15.40;94.50
11824;DHT22;5969;50.780;7.726;2023-05-16T11:22:12;15.80;93.10
11824;DHT22;5969;50.780;7.726;2023-05-16T11:24:51;15.30;92.50
11824;DHT22;5969;50.780;7.726;2023-05-16T11:27:23;15.20;93.30
11824;DHT22;5969;50.780;7.726;2023-05-16T11:29:51;15.10;93.20
11824;DHT22;5969;50.780;7.726;2023-05-16T11:32:19;15.20;93.70
11824;DHT22;5969;50.780;7.726;2023-05-16T11:34:47;15.30;92.90
11824;DHT22;5969;50.780;7.726;2023-05-16T11:37:15;15.20;92.70
11824;DHT22;5969;50.780;7.726;2023-05-16T11:39:42;15.30;92.50
11824;DHT22;5969;50.780;7.726;2023-05-16T11:42:10;15.30;93.30
11824;DHT22;5969;50.780;7.726;2023-05-16T11:44:37;15.60;93.60
11824;DHT22;5969;50.780;7.726;2023-05-16T11:47:04;15.20;92.90
11824;DHT22;5969;50.780;7.726;2023-05-16T11:49:32;15.30;92.10
11824;DHT22;5969;50.780;7.726;2023-05-16T11:52:01;15.20;92.10
11824;DHT22;5969;50.780;7.726;2023-05-16T11:54:27;15.30;92.10
11824;DHT22;5969;50.780;7.726;2023-05-16T11:56:54;15.60;93.30
11824;DHT22;5969;50.780;7.726;2023-05-16T11:59:23;15.70;92.00
11824;DHT22;5969;50.780;7.726;2023-05-16T12:01:50;16.00;92.40
11824;DHT22;5969;50.780;7.726;2023-05-16T12:04:17;16.10;91.80
11824;DHT22;5969;50.780;7.726;2023-05-16T12:06:57;16.30;91.40
11824;DHT22;5969;50.780;7.726;2023-05-16T12:09:25;16.10;91.40
11824;DHT22;5969;50.780;7.726;2023-05-16T12:11:52;16.20;90.50
11824;DHT22;5969;50.780;7.726;2023-05-16T12:14:19;15.60;90.80
11824;DHT22;5969;50.780;7.726;2023-05-16T12:16:47;15.70;90.50
11824;DHT22;5969;50.780;7.726;2023-05-16T12:19:14;15.60;90.70
11824;DHT22;5969;50.780;7.726;2023-05-16T12:21:41;15.50;91.50
11824;DHT22;5969;50.780;7.726;2023-05-16T12:24:09;15.40;91.40
11824;DHT22;5969;50.780;7.726;2023-05-16T12:26:39;15.80;91.50
11824;DHT22;5969;50.780;7.726;2023-05-16T12:29:07;16.30;91.40
11824;DHT22;5969;50.780;7.726;2023-05-16T12:31:37;16.70;92.00
11824;DHT22;5969;50.780;7.726;2023-05-16T12:34:14;16.60;90.90
11824;DHT22;5969;50.780;7.726;2023-05-16T12:36:41;16.50;90.30
11824;DHT22;5969;50.780;7.726;2023-05-16T12:39:11;16.30;90.40
11824;DHT22;5969;50.780;7.726;2023-05-16T12:41:40;16.70;90.90
11824;DHT22;5969;50.780;7.726;2023-05-16T12:44:10;16.80;90.00
11824;DHT22;5969;50.780;7.726;2023-05-16T12:46:40;17.20;90.90
11824;DHT22;5969;50.780;7.726;2023-05-16T12:49:08;17.40;90.30
11824;DHT22;5969;50.780;7.726;2023-05-16T12:51:35;17.00;89.70
11824;DHT22;5969;50.780;7.726;2023-05-16T12:54:09;16.60;90.30
11824;DHT22;5969;50.780;7.726;2023-05-16T12:56:37;16.20;89.70
11824;DHT22;5969;50.780;7.726;2023-05-16T12:59:04;15.80;90.60
11824;DHT22;5969;50.780;7.726;2023-05-16T13:01:31;16.00;91.10
11824;DHT22;5969;50.780;7.726;2023-05-16T13:03:58;16.20;92.70
11824;DHT22;5969;50.780;7.726;2023-05-16T13:06:26;16.30;90.40
11824;DHT22;5969;50.780;7.726;2023-05-16T13:08:53;16.40;91.70
11824;DHT22;5969;50.780;7.726;2023-05-16T13:11:20;16.20;90.90
11824;DHT22;5969;50.780;7.726;2023-05-16T13:13:48;16.20;91.40
11824;DHT22;5969;50.780;7.726;2023-05-16T13:16:14;16.50;92.80
11824;DHT22;5969;50.780;7.726;2023-05-16T13:18:41;16.90;92.50
11824;DHT22;5969;50.780;7.726;2023-05-16T13:21:08;17.00;90.00
11824;DHT22;5969;50.780;7.726;2023-05-16T13:23:37;16.90;89.80
11824;DHT22;5969;50.780;7.726;2023-05-16T13:26:04;17.30;91.10
11824;DHT22;5969;50.780;7.726;2023-05-16T13:28:36;17.50;90.70
11824;DHT22;5969;50.780;7.726;2023-05-16T13:31:03;17.80;90.80
11824;DHT22;5969;50.780;7.726;2023-05-16T13:33:30;17.60;89.50
11824;DHT22;5969;50.780;7.726;2023-05-16T13:35:56;17.40;88.50
11824;DHT22;5969;50.780;7.726;2023-05-16T13:38:23;16.90;87.70
11824;DHT22;5969;50.780;7.726;2023-05-16T13:40:51;16.90;89.50
11824;DHT22;5969;50.780;7.726;2023-05-16T13:43:18;17.10;89.00
11824;DHT22;5969;50.780;7.726;2023-05-16T13:45:45;17.70;89.10
11824;DHT22;5969;50.780;7.726;2023-05-16T13:48:12;18.40;88.30
11824;DHT22;5969;50.780;7.726;2023-05-16T13:50:39;17.80;87.60
11824;DHT22;5969;50.780;7.726;2023-05-16T13:53:06;18.90;89.00
11824;DHT22;5969;50.780;7.726;2023-05-16T13:55:33;20.50;84.00
11824;DHT22;5969;50.780;7.726;2023-05-16T13:58:02;20.20;87.30
11824;DHT22;5969;50.780;7.726;2023-05-16T14:00:28;20.20;85.10
11824;DHT22;5969;50.780;7.726;2023-05-16T14:02:55;19.20;85.70
11824;DHT22;5969;50.780;7.726;2023-05-16T14:05:22;21.10;85.60
11824;DHT22;5969;50.780;7.726;2023-05-16T14:07:49;22.90;85.10
11824;DHT22;5969;50.780;7.726;2023-05-16T14:10:16;23.70;82.00
11824;DHT22;5969;50.780;7.726;2023-05-16T14:12:43;23.20;81.70
11824;DHT22;5969;50.780;7.726;2023-05-16T14:15:11;23.30;81.80
11824;DHT22;5969;50.780;7.726;2023-05-16T14:17:38;23.00;81.30
11824;DHT22;5969;50.780;7.726;2023-05-16T14:20:06;23.10;83.30
11824;DHT22;5969;50.780;7.726;2023-05-16T14:22:36;22.60;80.90
11824;DHT22;5969;50.780;7.726;2023-05-16T14:25:04;21.80;80.60
11824;DHT22;5969;50.780;7.726;2023-05-16T14:27:31;21.30;82.20
11824;DHT22;5969;50.780;7.726;2023-05-16T14:29:58;20.90;81.90
11824;DHT22;5969;50.780;7.726;2023-05-16T14:32:26;20.10;84.10
11824;DHT22;5969;50.780;7.726;2023-05-16T14:34:53;19.60;83.60
11824;DHT22;5969;50.780;7.726;2023-05-16T14:37:20;19.10;84.40
11824;DHT22;5969;50.780;7.726;2023-05-16T14:39:47;18.00;85.20
11824;DHT22;5969;50.780;7.726;2023-05-16T14:42:15;17.70;87.20
11824;DHT22;5969;50.780;7.726;2023-05-16T14:44:42;17.30;87.60
11824;DHT22;5969;50.780;7.726;2023-05-16T14:47:09;17.10;88.30
11824;DHT22;5969;50.780;7.726;2023-05-16T14:49:37;16.90;89.40
11824;DHT22;5969;50.780;7.726;2023-05-16T14:52:04;16.60;90.20
11824;DHT22;5969;50.780;7.726;2023-05-16T14:54:31;16.20;90.10
11824;DHT22;5969;50.780;7.726;2023-05-16T14:56:58;16.20;90.70
11824;DHT22;5969;50.780;7.726;2023-05-16T14:59:26;16.00;91.10
11824;DHT22;5969;50.780;7.726;2023-05-16T15:01:52;15.90;90.60
11824;DHT22;5969;50.780;7.726;2023-05-16T15:04:19;15.50;91.20
11824;DHT22;5969;50.780;7.726;2023-05-16T15:06:47;15.30;91.20
11824;DHT22;5969;50.780;7.726;2023-05-16T15:09:14;15.20;91.30
11824;DHT22;5969;50.780;7.726;2023-05-16T15:11:42;15.10;91.40
11824;DHT22;5969;50.780;7.726;2023-05-16T15:14:08;15.30;91.90
11824;DHT22;5969;50.780;7.726;2023-05-16T15:16:35;15.30;91.70
11824;DHT22;5969;50.780;7.726;2023-05-16T15:19:02;15.30;91.80
11824;DHT22;5969;50.780;7.726;2023-05-16T15:21:29;15.40;92.30
11824;DHT22;5969;50.780;7.726;2023-05-16T15:23:58;15.60;91.80
11824;DHT22;5969;50.780;7.726;2023-05-16T15:26:25;16.00;92.10
11824;DHT22;5969;50.780;7.726;2023-05-16T15:28:52;16.10;92.10
11824;DHT22;5969;50.780;7.726;2023-05-16T15:31:20;16.20;92.20
11824;DHT22;5969;50.780;7.726;2023-05-16T15:33:46;16.20;91.90
11824;DHT22;5969;50.780;7.726;2023-05-16T15:36:13;16.20;92.20
11824;DHT22;5969;50.780;7.726;2023-05-16T15:38:41;16.30;92.20
11824;DHT22;5969;50.780;7.726;2023-05-16T15:41:11;16.00;92.00
11824;DHT22;5969;50.780;7.726;2023-05-16T15:43:39;16.00;91.40
11824;DHT22;5969;50.780;7.726;2023-05-16T15:46:07;15.40;92.20
11824;DHT22;5969;50.780;7.726;2023-05-16T15:48:34;15.60;92.80
11824;DHT22;5969;50.780;7.726;2023-05-16T15:51:01;16.90;91.90